createdAt,value
2023-01-26T00:01:29.605Z,24.90
2023-01-26T00:03:58.102Z,27.63
2023-01-26T00:06:26.874Z,23.77
2023-01-26T00:08:57.539Z,23.20
2023-01-26T00:11:27.960Z,24.02
2023-01-26T00:14:06.229Z,21.38
2023-01-26T00:16:36.029Z,23.17
2023-01-26T00:19:04.307Z,22.23
2023-01-26T00:21:32.948Z,23.42
2023-01-26T00:24:01.376Z,22.63
2023-01-26T00:26:30.063Z,23.42
2023-01-26T00:29:00.344Z,23.35
2023-01-26T00:31:29.020Z,23.10
2023-01-26T00:33:57.506Z,24.65
2023-01-26T00:36:26.265Z,23.88
2023-01-26T00:38:54.600Z,23.02
2023-01-26T00:41:41.537Z,23.52
2023-01-26T00:44:10.376Z,23.52
2023-01-26T00:46:38.963Z,24.92
2023-01-26T00:49:08.348Z,25.15
2023-01-26T00:51:36.908Z,24.20
2023-01-26T00:54:05.813Z,24.23
2023-01-26T00:56:34.421Z,23.60
2023-01-26T00:59:02.729Z,23.48
2023-01-26T01:01:31.431Z,23.27
2023-01-26T01:03:59.666Z,24.15
2023-01-26T01:06:28.191Z,22.98
2023-01-26T01:08:56.420Z,23.60
2023-01-26T01:11:25.123Z,25.23
2023-01-26T01:13:54.145Z,24.02
2023-01-26T01:16:23.016Z,23.02
2023-01-26T01:18:55.124Z,24.65
2023-01-26T01:21:24.486Z,25.38
2023-01-26T01:23:54.522Z,23.63
2023-01-26T01:26:23.239Z,24.10
2023-01-26T01:28:55.780Z,25.40
2023-01-26T01:31:26.193Z,24.67
2023-01-26T01:33:54.578Z,25.33
2023-01-26T01:36:24.265Z,25.98
2023-01-26T01:38:53.667Z,24.50
2023-01-26T01:41:25.754Z,24.60
2023-01-26T01:44:26.686Z,24.48
2023-01-26T01:47:04.451Z,22.92
2023-01-26T01:49:39.054Z,23.73
2023-01-26T01:52:26.251Z,24.30
2023-01-26T01:55:02.052Z,23.88
2023-01-26T01:57:45.304Z,23.50
2023-01-26T02:00:21.058Z,24.45
2023-01-26T02:03:19.393Z,24.55
2023-01-26T02:05:56.692Z,23.55
2023-01-26T02:08:33.713Z,22.80
2023-01-26T02:11:08.869Z,23.95
2023-01-26T02:13:39.700Z,23.45
2023-01-26T02:16:07.989Z,23.50
2023-01-26T02:18:36.778Z,24.35
2023-01-26T02:21:09.947Z,23.33
2023-01-26T02:23:57.606Z,23.95
2023-01-26T02:26:34.745Z,24.98
2023-01-26T02:29:08.732Z,24.73
2023-01-26T02:31:42.490Z,24.02
2023-01-26T02:34:11.666Z,25.33
2023-01-26T02:36:40.024Z,24.52
2023-01-26T02:39:20.723Z,24.02
2023-01-26T02:42:10.028Z,24.30
2023-01-26T02:44:42.987Z,23.63
2023-01-26T02:47:19.041Z,23.65
2023-01-26T02:49:50.730Z,24.92
2023-01-26T02:52:23.597Z,24.85
2023-01-26T02:55:30.619Z,24.50
2023-01-26T02:58:04.840Z,24.85
2023-01-26T03:00:42.111Z,24.77
2023-01-26T03:03:16.812Z,26.75
2023-01-26T03:05:46.558Z,24.80
2023-01-26T03:08:15.139Z,25.08
2023-01-26T03:10:43.824Z,26.05
2023-01-26T03:13:12.055Z,25.35
2023-01-26T03:15:44.091Z,25.30
2023-01-26T03:18:35.194Z,25.70
2023-01-26T03:21:28.963Z,26.15
2023-01-26T03:24:15.750Z,24.75
2023-01-26T03:27:03.162Z,26.02
2023-01-26T03:29:34.251Z,26.55
2023-01-26T03:32:03.968Z,26.77
2023-01-26T03:34:32.913Z,26.15
2023-01-26T03:37:01.631Z,29.55
2023-01-26T03:39:56.614Z,28.13
2023-01-26T03:42:44.228Z,28.23
2023-01-26T03:45:31.055Z,28.80
2023-01-26T03:48:30.798Z,28.85
2023-01-26T03:51:18.956Z,29.30
2023-01-26T03:54:17.297Z,28.90
2023-01-26T03:56:45.845Z,28.17
2023-01-26T03:59:41.275Z,29.33
2023-01-26T04:02:31.523Z,33.40
2023-01-26T04:05:19.474Z,33.95
2023-01-26T04:08:09.817Z,38.20
2023-01-26T04:10:38.451Z,40.85
2023-01-26T04:13:28.614Z,37.55
2023-01-26T04:16:22.714Z,33.88
2023-01-26T04:19:10.566Z,31.60
2023-01-26T04:21:39.338Z,31.63
2023-01-26T04:24:17.218Z,32.75
2023-01-26T04:26:47.118Z,31.75
2023-01-26T04:29:19.626Z,32.72
2023-01-26T04:31:52.397Z,33.58
2023-01-26T04:34:23.047Z,33.30
2023-01-26T04:36:52.314Z,32.45
2023-01-26T04:39:25.850Z,33.50
2023-01-26T04:41:57.784Z,34.42
2023-01-26T04:44:30.032Z,33.97
2023-01-26T04:46:59.434Z,32.53
2023-01-26T04:49:32.406Z,33.55
2023-01-26T04:52:01.034Z,32.25
2023-01-26T04:54:30.671Z,33.70
2023-01-26T04:56:59.277Z,35.55
2023-01-26T04:59:37.320Z,35.97
2023-01-26T05:02:06.124Z,35.08
2023-01-26T05:04:34.932Z,31.90
2023-01-26T05:07:03.968Z,34.75
2023-01-26T05:09:33.414Z,35.45
2023-01-26T05:13:30.556Z,33.30
2023-01-26T05:16:25.559Z,30.00
2023-01-26T05:19:02.993Z,32.47
2023-01-26T05:22:06.691Z,32.55
2023-01-26T05:24:38.200Z,32.20
2023-01-26T05:27:26.719Z,29.20
2023-01-26T05:30:01.293Z,29.05
2023-01-26T05:32:32.194Z,29.95
2023-01-26T05:35:00.824Z,30.20
2023-01-26T05:37:29.993Z,29.38
2023-01-26T05:39:59.178Z,29.13
2023-01-26T05:42:28.196Z,28.80
2023-01-26T05:45:15.849Z,30.60
2023-01-26T05:47:45.726Z,32.10
2023-01-26T05:50:15.040Z,32.50
2023-01-26T05:52:46.840Z,30.05
2023-01-26T05:55:15.771Z,29.33
2023-01-26T05:57:44.766Z,29.63
2023-01-26T06:00:14.649Z,29.38
2023-01-26T06:02:46.319Z,28.80
2023-01-26T06:05:18.087Z,28.55
2023-01-26T06:07:49.218Z,27.30
2023-01-26T06:10:23.822Z,28.40
2023-01-26T06:13:19.542Z,26.58
2023-01-26T06:21:45.486Z,24.45
2023-01-26T06:24:14.907Z,23.20
2023-01-26T06:26:52.254Z,24.50
2023-01-26T06:29:21.045Z,24.60
2023-01-26T06:31:52.439Z,23.75
2023-01-26T06:34:22.900Z,24.70
2023-01-26T06:36:51.251Z,23.67
2023-01-26T06:39:28.592Z,22.75
2023-01-26T06:42:00.170Z,23.13
2023-01-26T06:44:29.162Z,24.63
2023-01-26T06:46:58.329Z,22.92
2023-01-26T06:49:33.627Z,21.98
2023-01-26T06:52:32.069Z,22.50
2023-01-26T06:55:32.584Z,21.75
2023-01-26T06:58:16.554Z,22.48
2023-01-26T07:01:08.285Z,21.60
2023-01-26T07:03:36.545Z,21.33
2023-01-26T07:06:12.078Z,21.90
2023-01-26T07:08:40.436Z,21.40
2023-01-26T07:11:20.347Z,21.98
2023-01-26T07:13:58.807Z,22.17
2023-01-26T07:16:33.999Z,22.13
2023-01-26T07:19:08.132Z,21.75
2023-01-26T07:21:49.569Z,24.30
2023-01-26T07:24:18.007Z,22.70
2023-01-26T07:27:01.328Z,21.27
2023-01-26T07:29:29.702Z,21.05
2023-01-26T07:32:01.318Z,21.92
2023-01-26T07:34:30.715Z,22.05
2023-01-26T07:36:59.353Z,22.08
2023-01-26T07:39:28.768Z,20.75
2023-01-26T07:42:02.987Z,21.88
2023-01-26T07:45:33.207Z,21.17
2023-01-26T07:48:03.289Z,21.55
2023-01-26T07:50:42.123Z,21.20
2023-01-26T07:53:35.146Z,21.33
2023-01-26T07:56:28.514Z,18.90
2023-01-26T07:59:15.775Z,19.13
2023-01-26T08:02:18.091Z,18.55
2023-01-26T08:04:56.132Z,18.25
2023-01-26T08:07:33.000Z,19.92
2023-01-26T08:10:01.833Z,20.27
2023-01-26T08:12:42.438Z,20.50
2023-01-26T08:15:55.496Z,19.77
2023-01-26T08:19:01.285Z,19.85
2023-01-26T08:21:35.870Z,20.40
2023-01-26T08:24:11.064Z,21.25
2023-01-26T08:26:47.222Z,22.25
2023-01-26T08:29:15.618Z,19.83
2023-01-26T08:31:45.363Z,20.38
2023-01-26T08:34:16.784Z,20.35
2023-01-26T08:36:50.861Z,20.38
2023-01-26T08:39:24.684Z,21.85
2023-01-26T08:41:56.176Z,21.05
2023-01-26T08:47:08.627Z,22.33
2023-01-26T08:49:38.216Z,20.95
2023-01-26T08:54:53.788Z,20.00
2023-01-26T08:57:26.067Z,20.17
2023-01-26T08:59:55.470Z,20.83
2023-01-26T09:02:29.396Z,19.75
2023-01-26T09:07:47.573Z,19.02
2023-01-26T09:10:23.433Z,17.80
2023-01-26T09:12:52.715Z,17.13
2023-01-26T09:15:22.257Z,18.90
2023-01-26T09:17:54.747Z,18.52
2023-01-26T09:20:25.348Z,19.52
2023-01-26T09:22:55.868Z,19.58
2023-01-26T09:25:24.124Z,20.70
2023-01-26T09:27:54.879Z,19.63
2023-01-26T09:30:26.898Z,19.58
2023-01-26T09:33:05.257Z,18.50
2023-01-26T09:35:35.820Z,18.58
2023-01-26T09:38:07.277Z,19.52
2023-01-26T09:41:13.053Z,19.38
2023-01-26T09:43:59.055Z,20.70
2023-01-26T09:47:11.705Z,20.33
2023-01-26T09:50:15.553Z,20.95
2023-01-26T09:53:05.247Z,19.80
2023-01-26T09:55:40.550Z,17.00
2023-01-26T09:58:32.821Z,18.48
2023-01-26T10:01:02.898Z,18.55
2023-01-26T10:03:48.411Z,18.25
2023-01-26T10:06:28.791Z,18.38
2023-01-26T10:09:35.171Z,17.17
2023-01-26T10:12:28.819Z,17.55
2023-01-26T10:15:43.763Z,16.20
2023-01-26T10:18:24.194Z,17.20
2023-01-26T10:20:56.255Z,17.08
2023-01-26T10:23:37.418Z,16.60
2023-01-26T10:27:04.361Z,16.50
2023-01-26T10:29:33.022Z,16.05
2023-01-26T10:32:03.362Z,16.50
2023-01-26T10:34:38.682Z,15.82
2023-01-26T10:37:29.624Z,18.38
2023-01-26T10:40:18.137Z,15.13
2023-01-26T10:43:17.390Z,16.17
2023-01-26T10:45:50.737Z,16.73
2023-01-26T10:48:51.444Z,17.13
2023-01-26T10:52:04.195Z,16.75
2023-01-26T10:54:39.942Z,16.45
2023-01-26T10:57:29.823Z,16.73
2023-01-26T11:00:00.522Z,15.35
2023-01-26T11:02:32.254Z,18.85
2023-01-26T11:05:13.279Z,15.50
2023-01-26T11:07:45.886Z,18.40
2023-01-26T11:13:37.684Z,13.73
2023-01-26T11:16:27.640Z,13.85
2023-01-26T11:19:15.423Z,15.90
2023-01-26T11:22:33.162Z,16.10
2023-01-26T11:26:12.502Z,15.27
2023-01-26T11:29:25.276Z,14.15
2023-01-26T11:32:35.299Z,13.77
2023-01-26T11:36:08.644Z,13.93
2023-01-26T11:38:39.463Z,14.23
2023-01-26T11:41:35.649Z,13.27
2023-01-26T11:44:48.871Z,13.80
2023-01-26T11:47:38.388Z,14.32
2023-01-26T11:50:17.922Z,14.77
2023-01-26T11:53:41.603Z,15.73
2023-01-26T11:56:27.292Z,14.85
2023-01-26T11:59:30.967Z,15.07
2023-01-26T12:02:27.925Z,14.73
2023-01-26T12:05:03.250Z,14.32
2023-01-26T12:08:18.739Z,14.93
2023-01-26T12:11:24.336Z,14.15
2023-01-26T12:14:27.539Z,14.52
2023-01-26T12:17:35.388Z,11.23
2023-01-26T12:20:21.432Z,11.48
2023-01-26T12:23:17.505Z,15.47
2023-01-26T12:26:25.765Z,20.10
2023-01-26T12:29:55.435Z,15.98
2023-01-26T12:33:15.009Z,14.68
2023-01-26T12:35:54.792Z,23.10
2023-01-26T12:39:15.124Z,23.65
2023-01-26T12:41:51.054Z,25.10
2023-01-26T12:44:37.230Z,29.83
2023-01-26T12:47:18.963Z,30.10
2023-01-26T12:50:19.305Z,25.80
2023-01-26T12:53:05.729Z,24.48
2023-01-26T12:55:44.835Z,15.57
2023-01-26T12:58:22.226Z,16.92
2023-01-26T13:01:24.772Z,16.42
2023-01-26T13:04:06.704Z,15.70
2023-01-26T13:06:38.620Z,16.08
2023-01-26T13:09:16.493Z,16.33
2023-01-26T13:11:47.734Z,20.70
2023-01-26T13:14:44.361Z,22.80
2023-01-26T13:17:15.716Z,19.83
2023-01-26T13:20:07.595Z,19.30
2023-01-26T13:22:41.513Z,17.57
2023-01-26T13:25:19.599Z,17.40
2023-01-26T13:29:01.223Z,15.40
2023-01-26T13:31:36.422Z,18.92
2023-01-26T13:34:09.419Z,17.48
2023-01-26T13:36:41.882Z,17.33
2023-01-26T13:39:45.525Z,19.10
2023-01-26T13:42:31.924Z,20.88
2023-01-26T13:45:33.361Z,22.85
2023-01-26T13:48:07.569Z,16.77
2023-01-26T13:51:06.413Z,17.52
2023-01-26T13:54:11.861Z,14.45
2023-01-26T13:56:59.656Z,18.52
2023-01-26T13:59:34.413Z,17.80
2023-01-26T14:02:02.888Z,18.98
2023-01-26T14:04:34.641Z,17.55
2023-01-26T14:07:35.264Z,17.40
2023-01-26T14:10:05.217Z,19.85
2023-01-26T14:19:25.783Z,14.40
2023-01-26T14:22:01.071Z,15.48
2023-01-26T14:25:00.853Z,16.38
2023-01-26T14:27:38.458Z,17.95
2023-01-26T14:30:42.264Z,16.08
2023-01-26T14:33:16.816Z,19.13
2023-01-26T14:42:40.044Z,17.58
2023-01-26T14:45:31.828Z,19.00
2023-01-26T14:56:49.774Z,27.77
2023-01-26T14:59:35.060Z,25.23
2023-01-26T15:02:20.099Z,28.17
2023-01-26T15:05:01.805Z,30.40
2023-01-26T15:07:40.240Z,24.92
2023-01-26T15:10:46.920Z,24.35
2023-01-26T15:13:19.521Z,20.58
2023-01-26T15:16:00.244Z,17.73
2023-01-26T15:18:33.656Z,19.23
2023-01-26T15:21:18.476Z,17.55
2023-01-26T15:23:55.555Z,16.70
2023-01-26T15:26:27.810Z,16.80
2023-01-26T15:29:00.046Z,16.63
2023-01-26T15:34:44.008Z,18.30
2023-01-26T15:37:33.749Z,17.88
2023-01-26T15:40:04.139Z,17.67
2023-01-26T15:42:41.129Z,19.17
2023-01-26T15:45:27.405Z,19.20
2023-01-26T15:48:48.770Z,18.85
2023-01-26T15:51:17.696Z,26.95
2023-01-26T15:53:46.266Z,37.78
2023-01-26T15:56:17.645Z,28.33
2023-01-26T15:58:51.289Z,21.20
2023-01-26T16:01:23.451Z,18.70
2023-01-26T16:03:54.605Z,21.00
2023-01-26T16:06:29.939Z,22.60
2023-01-26T16:09:04.030Z,20.77
2023-01-26T16:11:50.994Z,23.13
2023-01-26T16:14:24.128Z,21.23
2023-01-26T16:16:52.773Z,25.15
2023-01-26T16:22:35.008Z,21.33
2023-01-26T16:25:20.770Z,19.45
2023-01-26T16:30:52.596Z,17.60
2023-01-26T16:33:25.000Z,17.15
2023-01-26T16:38:25.333Z,20.15
2023-01-26T16:40:55.196Z,20.88
2023-01-26T16:43:32.637Z,20.15
2023-01-26T16:46:01.097Z,19.40
2023-01-26T16:48:34.619Z,22.88
2023-01-26T16:51:15.083Z,31.75
2023-01-26T16:53:44.000Z,28.73
2023-01-26T16:56:14.293Z,24.38
2023-01-26T16:58:57.668Z,22.20
2023-01-26T17:01:35.399Z,21.60
2023-01-26T17:04:36.584Z,28.85
2023-01-26T17:10:06.198Z,21.27
2023-01-26T17:12:34.920Z,19.77
2023-01-26T17:15:10.811Z,19.30
2023-01-26T17:23:37.523Z,26.33
2023-01-26T17:26:08.152Z,23.77
2023-01-26T17:28:39.639Z,25.40
2023-01-26T17:31:10.971Z,26.08
2023-01-26T17:33:42.359Z,25.92
2023-01-26T17:36:11.467Z,26.52
2023-01-26T17:38:42.626Z,25.90
2023-01-26T17:41:11.643Z,21.85
2023-01-26T17:43:39.961Z,20.15
2023-01-26T17:46:24.748Z,21.38
2023-01-26T17:49:14.041Z,18.48
2023-01-26T17:51:46.861Z,18.55
2023-01-26T17:54:15.138Z,18.38
2023-01-26T17:56:43.915Z,18.33
2023-01-26T17:59:13.476Z,19.10
2023-01-26T18:01:42.199Z,18.88
2023-01-26T18:04:10.768Z,18.92
2023-01-26T18:06:39.493Z,20.42
2023-01-26T18:09:11.326Z,24.02
2023-01-26T18:11:40.016Z,72.15
2023-01-26T18:14:08.399Z,92.65
2023-01-26T18:17:44.008Z,99.63
2023-01-26T18:20:15.258Z,52.67
2023-01-26T18:22:47.936Z,47.83
2023-01-26T18:25:21.004Z,53.75
2023-01-26T18:27:50.466Z,97.63
2023-01-26T18:30:49.206Z,64.57
2023-01-26T18:33:21.470Z,119.32
2023-01-26T18:39:16.965Z,99.35
2023-01-26T18:41:50.647Z,57.88
2023-01-26T18:44:27.808Z,55.92
2023-01-26T18:46:59.468Z,62.10
2023-01-26T18:49:33.648Z,75.72
2023-01-26T18:52:05.886Z,47.17
2023-01-26T18:54:47.421Z,26.70
2023-01-26T18:57:16.512Z,60.65
2023-01-26T18:59:47.668Z,38.50
2023-01-26T19:02:37.125Z,43.92
2023-01-26T19:07:56.797Z,47.92
2023-01-26T19:10:25.533Z,60.13
2023-01-26T19:12:55.107Z,61.67
2023-01-26T19:15:27.513Z,36.47
2023-01-26T19:18:00.273Z,37.53
2023-01-26T19:20:36.086Z,38.70
2023-01-26T19:23:07.592Z,52.90
2023-01-26T19:25:52.289Z,52.83
2023-01-26T19:28:25.421Z,60.90
2023-01-26T19:31:08.248Z,65.47
2023-01-26T19:36:39.569Z,33.22
2023-01-26T19:42:47.311Z,56.00
2023-01-26T19:45:15.735Z,34.85
2023-01-26T19:47:44.524Z,32.28
2023-01-26T19:50:15.578Z,26.08
2023-01-26T19:52:44.319Z,46.85
2023-01-26T19:55:12.960Z,52.17
2023-01-26T19:57:41.867Z,42.30
2023-01-26T20:00:15.439Z,44.17
2023-01-26T20:02:56.501Z,44.28
2023-01-26T20:05:48.427Z,28.42
2023-01-26T20:11:39.621Z,27.00
2023-01-26T20:14:20.766Z,28.40
2023-01-26T20:17:00.905Z,40.97
2023-01-26T20:19:36.158Z,51.15
2023-01-26T20:22:16.377Z,47.20
2023-01-26T20:24:45.895Z,23.70
2023-01-26T20:27:34.876Z,25.58
2023-01-26T20:34:39.467Z,33.78
2023-01-26T20:37:13.715Z,49.03
2023-01-26T20:40:09.375Z,38.40
2023-01-26T20:43:22.963Z,65.50
2023-01-26T21:40:38.534Z,36.15
2023-01-26T21:43:07.161Z,58.13
2023-01-26T21:46:01.588Z,27.48
2023-01-26T21:51:39.226Z,50.90
2023-01-26T21:54:16.555Z,101.32
2023-01-26T21:59:42.967Z,45.95
2023-01-26T22:02:11.374Z,63.25
2023-01-26T22:04:40.325Z,59.85
2023-01-26T22:07:08.570Z,35.70
2023-01-26T22:09:40.464Z,37.25
2023-01-26T22:12:09.103Z,25.88
2023-01-26T22:14:38.111Z,29.83
2023-01-26T22:17:09.109Z,42.92
2023-01-26T22:19:38.425Z,55.95
2023-01-26T22:22:09.365Z,38.78
2023-01-26T22:24:47.268Z,42.30
2023-01-26T22:27:51.440Z,36.60
2023-01-26T22:30:20.292Z,33.92
2023-01-26T22:32:48.902Z,39.33
2023-01-26T22:35:21.757Z,30.02
2023-01-26T22:38:00.416Z,33.75
2023-01-26T22:40:31.877Z,31.45
2023-01-26T22:43:05.796Z,31.17
2023-01-26T22:45:44.353Z,31.95
2023-01-26T22:48:12.886Z,69.85
2023-01-26T22:50:41.857Z,28.63
2023-01-26T22:53:10.341Z,71.30
2023-01-26T22:55:42.870Z,26.00
2023-01-26T22:58:11.768Z,34.42
2023-01-26T23:04:15.124Z,39.55
2023-01-26T23:06:48.793Z,30.75
2023-01-26T23:09:42.129Z,41.88
2023-01-26T23:12:33.919Z,23.90
2023-01-26T23:15:10.375Z,38.28
2023-01-26T23:17:40.453Z,44.00
2023-01-26T23:23:23.490Z,23.33
2023-01-26T23:26:20.824Z,22.23
2023-01-26T23:29:22.250Z,80.28
2023-01-26T23:32:29.381Z,56.22
2023-01-26T23:35:01.812Z,31.65
2023-01-26T23:37:42.480Z,71.72
2023-01-26T23:40:15.187Z,48.60
2023-01-26T23:43:03.475Z,53.67
2023-01-26T23:46:23.457Z,68.75
2023-01-26T23:48:52.112Z,37.58
2023-01-26T23:51:29.888Z,109.47
2023-01-26T23:53:58.380Z,52.75
2023-01-26T23:56:27.092Z,114.40
2023-01-26T23:58:55.878Z,53.90
